TBPB

Details ICAO TBPB (BGI)
Name Barbados/Grantley Adams Intl
Region Barbados
Timezone America/Barbados (UTC-4.0)
Plans Departing 334
Arriving 494
Stats Elevation 168 ft / 51 m (AMSL)
Location 13.074614° -59.492206°
Runways 1
Magnetic Variation 15.613° W
Sunrise 2017-12-18 10:15:20 UTC / 2017-12-18 06:15:20 Local
Sunset 2017-12-18 21:36:41 UTC / 2017-12-18 17:36:41 Local
Advertisement - Login to hide

Runways

ID Width Length Bearing (true) Bearing (mag) Surface Threshold Offset Overrun Length
09 148 ft / 45 m 11,924 ft / 3,635 m 75.84° 91.45° Asphalt 0 ft / 0 m 174 ft / 53 m
27 148 ft / 45 m 11,924 ft / 3,635 m 255.85° 271.46° Asphalt 0 ft / 0 m 0 ft / 0 m

Approach Navaids

Runway Type Ident Frequency Range Bearing (true) Bearing (mag) Slope Elevation
09 Localiser IBGI 110.10 MHz 18 nm / 33 km 75.97° 91.59° - 168 ft / 51 m (AMSL)
09 Glidescope IBGI 110.10 MHz 10 nm / 19 km 75.85° 91.46° 3.00° 168 ft / 51 m (AMSL)

Map

Weather


0- 5 10 15 20 25 30 35+ Temperature / ° C

Clouds and Precipitation
Forecast for 2017-12-18 12:00 UTC. Updated 6 minutes ago

Ground ~20,000 ft ~40,000 ft Winds

METAR

TBPB 180600Z 07015KT 9999 SCT020 26/22 Q1013 NOSIG

TAF

Not found

Frequencies

Ground 121.90 MHz ADAMS GND
Approach 129.35 MHz ADAMS APP
Approach 121.20 MHz ADAMS APP
Tower 118.70 MHz ADAMS TWR
Approach 120.70 MHz ADAMS APP
Approach 128.85 MHz ADAMS APP
Warning: Do not use this data for real-world aviation or navigation. No guarantee of current accuracy is given.